sensor_id;sensor_type;location;lat;lon;timestamp;P1;durP1;ratioP1;P2;durP2;ratioP2
11255;SDS011;5685;52.384;13.420;2022-12-19T00:00:24;23.57;;;22.17;;
11255;SDS011;5685;52.384;13.420;2022-12-19T00:03:26;23.70;;;22.30;;
11255;SDS011;5685;52.384;13.420;2022-12-19T00:06:31;23.57;;;22.17;;
11255;SDS011;5685;52.384;13.420;2022-12-19T00:09:33;23.77;;;22.37;;
11255;SDS011;5685;52.384;13.420;2022-12-19T00:12:36;23.80;;;22.40;;
11255;SDS011;5685;52.384;13.420;2022-12-19T00:15:38;24.00;;;22.60;;
11255;SDS011;5685;52.384;13.420;2022-12-19T00:18:42;23.47;;;22.07;;
11255;SDS011;5685;52.384;13.420;2022-12-19T00:21:47;23.73;;;22.33;;
11255;SDS011;5685;52.384;13.420;2022-12-19T00:24:49;23.70;;;22.30;;
11255;SDS011;5685;52.384;13.420;2022-12-19T00:27:52;23.93;;;22.53;;
11255;SDS011;5685;52.384;13.420;2022-12-19T00:30:55;23.93;;;22.53;;
11255;SDS011;5685;52.384;13.420;2022-12-19T00:34:01;23.63;;;22.23;;
11255;SDS011;5685;52.384;13.420;2022-12-19T00:37:05;24.10;;;22.70;;
11255;SDS011;5685;52.384;13.420;2022-12-19T00:40:08;23.63;;;22.23;;
11255;SDS011;5685;52.384;13.420;2022-12-19T00:43:12;23.77;;;22.37;;
11255;SDS011;5685;52.384;13.420;2022-12-19T00:46:14;23.53;;;22.13;;
11255;SDS011;5685;52.384;13.420;2022-12-19T00:49:17;23.17;;;21.83;;
11255;SDS011;5685;52.384;13.420;2022-12-19T00:52:21;23.77;;;22.37;;
11255;SDS011;5685;52.384;13.420;2022-12-19T00:55:24;23.60;;;22.20;;
11255;SDS011;5685;52.384;13.420;2022-12-19T00:58:27;23.63;;;22.23;;
11255;SDS011;5685;52.384;13.420;2022-12-19T01:01:30;23.70;;;22.30;;
11255;SDS011;5685;52.384;13.420;2022-12-19T01:04:34;23.90;;;22.50;;
11255;SDS011;5685;52.384;13.420;2022-12-19T01:07:38;23.57;;;22.17;;
11255;SDS011;5685;52.384;13.420;2022-12-19T01:10:43;23.73;;;22.33;;
11255;SDS011;5685;52.384;13.420;2022-12-19T01:13:47;23.80;;;22.40;;
11255;SDS011;5685;52.384;13.420;2022-12-19T01:16:48;23.63;;;22.23;;
11255;SDS011;5685;52.384;13.420;2022-12-19T01:19:51;23.70;;;22.30;;
11255;SDS011;5685;52.384;13.420;2022-12-19T01:22:55;23.67;;;22.27;;
11255;SDS011;5685;52.384;13.420;2022-12-19T01:25:58;23.53;;;22.13;;
11255;SDS011;5685;52.384;13.420;2022-12-19T01:29:01;23.90;;;22.50;;
11255;SDS011;5685;52.384;13.420;2022-12-19T01:32:04;23.80;;;22.40;;
11255;SDS011;5685;52.384;13.420;2022-12-19T01:35:07;23.63;;;22.23;;
11255;SDS011;5685;52.384;13.420;2022-12-19T01:38:12;23.67;;;22.27;;
11255;SDS011;5685;52.384;13.420;2022-12-19T01:41:16;23.80;;;22.40;;
11255;SDS011;5685;52.384;13.420;2022-12-19T01:44:19;23.73;;;22.33;;
11255;SDS011;5685;52.384;13.420;2022-12-19T01:47:25;23.87;;;22.47;;
11255;SDS011;5685;52.384;13.420;2022-12-19T01:50:30;23.90;;;22.50;;
11255;SDS011;5685;52.384;13.420;2022-12-19T01:53:39;23.53;;;22.13;;
11255;SDS011;5685;52.384;13.420;2022-12-19T01:56:45;23.80;;;22.40;;
11255;SDS011;5685;52.384;13.420;2022-12-19T01:59:50;23.70;;;22.30;;
11255;SDS011;5685;52.384;13.420;2022-12-19T02:02:55;23.50;;;22.10;;
11255;SDS011;5685;52.384;13.420;2022-12-19T02:06:03;23.80;;;22.40;;
11255;SDS011;5685;52.384;13.420;2022-12-19T02:09:08;23.57;;;22.17;;
11255;SDS011;5685;52.384;13.420;2022-12-19T02:12:12;23.80;;;22.40;;
11255;SDS011;5685;52.384;13.420;2022-12-19T02:15:15;23.80;;;22.40;;
11255;SDS011;5685;52.384;13.420;2022-12-19T02:18:21;23.57;;;22.17;;
11255;SDS011;5685;52.384;13.420;2022-12-19T02:21:31;23.53;;;22.13;;
11255;SDS011;5685;52.384;13.420;2022-12-19T02:28:17;23.53;;;22.13;;
11255;SDS011;5685;52.384;13.420;2022-12-19T02:31:37;23.67;;;22.27;;
11255;SDS011;5685;52.384;13.420;2022-12-19T02:34:44;23.57;;;22.17;;
11255;SDS011;5685;52.384;13.420;2022-12-19T02:37:51;23.60;;;22.20;;
11255;SDS011;5685;52.384;13.420;2022-12-19T02:40:59;24.10;;;22.70;;
11255;SDS011;5685;52.384;13.420;2022-12-19T02:44:06;23.90;;;22.50;;
11255;SDS011;5685;52.384;13.420;2022-12-19T02:47:10;23.83;;;22.43;;
11255;SDS011;5685;52.384;13.420;2022-12-19T02:50:13;23.63;;;22.23;;
11255;SDS011;5685;52.384;13.420;2022-12-19T02:53:16;23.73;;;22.33;;
11255;SDS011;5685;52.384;13.420;2022-12-19T02:56:26;23.67;;;22.27;;
11255;SDS011;5685;52.384;13.420;2022-12-19T02:59:39;24.00;;;22.60;;
11255;SDS011;5685;52.384;13.420;2022-12-19T03:02:50;23.77;;;22.37;;
11255;SDS011;5685;52.384;13.420;2022-12-19T03:06:00;23.67;;;22.27;;
11255;SDS011;5685;52.384;13.420;2022-12-19T03:09:13;23.63;;;22.23;;
11255;SDS011;5685;52.384;13.420;2022-12-19T03:12:20;23.67;;;22.27;;
11255;SDS011;5685;52.384;13.420;2022-12-19T03:15:25;23.87;;;22.47;;
11255;SDS011;5685;52.384;13.420;2022-12-19T03:18:29;23.83;;;22.43;;
11255;SDS011;5685;52.384;13.420;2022-12-19T03:21:33;23.80;;;22.40;;
11255;SDS011;5685;52.384;13.420;2022-12-19T03:24:38;23.83;;;22.43;;
11255;SDS011;5685;52.384;13.420;2022-12-19T03:27:41;23.77;;;22.37;;
11255;SDS011;5685;52.384;13.420;2022-12-19T03:30:44;23.60;;;22.20;;
11255;SDS011;5685;52.384;13.420;2022-12-19T03:33:51;23.87;;;22.47;;
11255;SDS011;5685;52.384;13.420;2022-12-19T03:36:57;23.87;;;22.47;;
11255;SDS011;5685;52.384;13.420;2022-12-19T03:40:04;24.17;;;22.77;;
11255;SDS011;5685;52.384;13.420;2022-12-19T03:43:08;23.73;;;22.33;;
11255;SDS011;5685;52.384;13.420;2022-12-19T03:46:14;23.83;;;22.43;;
11255;SDS011;5685;52.384;13.420;2022-12-19T03:49:20;23.67;;;22.27;;
11255;SDS011;5685;52.384;13.420;2022-12-19T03:52:24;23.77;;;22.37;;
11255;SDS011;5685;52.384;13.420;2022-12-19T03:55:32;23.77;;;22.37;;
11255;SDS011;5685;52.384;13.420;2022-12-19T03:58:37;23.63;;;22.23;;
11255;SDS011;5685;52.384;13.420;2022-12-19T04:01:43;23.53;;;22.13;;
11255;SDS011;5685;52.384;13.420;2022-12-19T04:04:49;23.60;;;22.20;;
11255;SDS011;5685;52.384;13.420;2022-12-19T04:07:55;23.77;;;22.37;;
11255;SDS011;5685;52.384;13.420;2022-12-19T04:11:00;24.10;;;22.70;;
11255;SDS011;5685;52.384;13.420;2022-12-19T04:14:06;23.87;;;22.47;;
11255;SDS011;5685;52.384;13.420;2022-12-19T04:17:12;23.90;;;22.50;;
11255;SDS011;5685;52.384;13.420;2022-12-19T04:20:23;23.53;;;22.13;;
11255;SDS011;5685;52.384;13.420;2022-12-19T04:23:27;23.93;;;22.53;;
11255;SDS011;5685;52.384;13.420;2022-12-19T04:26:32;23.90;;;22.50;;
11255;SDS011;5685;52.384;13.420;2022-12-19T04:29:36;23.80;;;22.40;;
11255;SDS011;5685;52.384;13.420;2022-12-19T04:32:39;23.90;;;22.50;;
11255;SDS011;5685;52.384;13.420;2022-12-19T04:35:44;23.63;;;22.23;;
11255;SDS011;5685;52.384;13.420;2022-12-19T04:38:47;23.77;;;22.37;;
11255;SDS011;5685;52.384;13.420;2022-12-19T04:41:50;23.87;;;22.47;;
11255;SDS011;5685;52.384;13.420;2022-12-19T04:44:53;23.70;;;22.30;;
11255;SDS011;5685;52.384;13.420;2022-12-19T04:47:55;23.77;;;22.37;;
11255;SDS011;5685;52.384;13.420;2022-12-19T04:51:00;24.00;;;22.60;;
11255;SDS011;5685;52.384;13.420;2022-12-19T04:54:02;23.73;;;22.33;;
11255;SDS011;5685;52.384;13.420;2022-12-19T04:57:05;23.57;;;22.17;;
11255;SDS011;5685;52.384;13.420;2022-12-19T05:00:08;23.80;;;22.40;;
11255;SDS011;5685;52.384;13.420;2022-12-19T05:03:12;23.80;;;22.40;;
11255;SDS011;5685;52.384;13.420;2022-12-19T05:06:16;23.70;;;22.30;;
11255;SDS011;5685;52.384;13.420;2022-12-19T05:09:19;23.53;;;22.13;;
11255;SDS011;5685;52.384;13.420;2022-12-19T05:12:22;23.73;;;22.33;;
11255;SDS011;5685;52.384;13.420;2022-12-19T05:15:25;23.77;;;22.37;;
11255;SDS011;5685;52.384;13.420;2022-12-19T05:18:28;23.63;;;22.23;;
11255;SDS011;5685;52.384;13.420;2022-12-19T05:21:32;24.13;;;22.73;;
11255;SDS011;5685;52.384;13.420;2022-12-19T05:24:35;23.90;;;22.50;;
11255;SDS011;5685;52.384;13.420;2022-12-19T05:27:38;23.87;;;22.47;;
11255;SDS011;5685;52.384;13.420;2022-12-19T05:30:41;23.87;;;22.47;;
11255;SDS011;5685;52.384;13.420;2022-12-19T05:33:44;23.73;;;22.33;;
11255;SDS011;5685;52.384;13.420;2022-12-19T05:36:49;23.80;;;22.40;;
11255;SDS011;5685;52.384;13.420;2022-12-19T05:39:51;23.67;;;22.27;;
11255;SDS011;5685;52.384;13.420;2022-12-19T05:42:54;23.90;;;22.50;;
11255;SDS011;5685;52.384;13.420;2022-12-19T05:45:57;23.67;;;22.27;;
11255;SDS011;5685;52.384;13.420;2022-12-19T05:48:59;23.60;;;22.20;;
11255;SDS011;5685;52.384;13.420;2022-12-19T05:52:04;23.80;;;22.40;;
11255;SDS011;5685;52.384;13.420;2022-12-19T05:55:07;23.90;;;22.50;;
11255;SDS011;5685;52.384;13.420;2022-12-19T05:58:10;23.60;;;22.20;;
11255;SDS011;5685;52.384;13.420;2022-12-19T06:01:13;23.70;;;22.30;;
11255;SDS011;5685;52.384;13.420;2022-12-19T06:04:17;23.57;;;22.17;;
11255;SDS011;5685;52.384;13.420;2022-12-19T06:07:21;23.87;;;22.47;;
11255;SDS011;5685;52.384;13.420;2022-12-19T06:10:24;23.80;;;22.40;;
11255;SDS011;5685;52.384;13.420;2022-12-19T06:13:27;23.77;;;22.37;;
11255;SDS011;5685;52.384;13.420;2022-12-19T06:16:30;23.63;;;22.23;;
11255;SDS011;5685;52.384;13.420;2022-12-19T06:19:32;23.93;;;22.53;;
11255;SDS011;5685;52.384;13.420;2022-12-19T06:22:37;23.97;;;22.57;;
11255;SDS011;5685;52.384;13.420;2022-12-19T06:25:39;24.00;;;22.60;;
11255;SDS011;5685;52.384;13.420;2022-12-19T06:28:42;23.83;;;22.43;;
11255;SDS011;5685;52.384;13.420;2022-12-19T06:31:45;23.80;;;22.40;;
11255;SDS011;5685;52.384;13.420;2022-12-19T06:34:47;24.00;;;22.60;;
11255;SDS011;5685;52.384;13.420;2022-12-19T06:37:52;23.83;;;22.43;;
11255;SDS011;5685;52.384;13.420;2022-12-19T06:40:55;24.00;;;22.60;;
11255;SDS011;5685;52.384;13.420;2022-12-19T06:44:15;23.73;;;22.33;;
11255;SDS011;5685;52.384;13.420;2022-12-19T06:47:19;23.93;;;22.53;;
11255;SDS011;5685;52.384;13.420;2022-12-19T06:50:22;23.67;;;22.27;;
11255;SDS011;5685;52.384;13.420;2022-12-19T06:53:26;23.83;;;22.43;;
11255;SDS011;5685;52.384;13.420;2022-12-19T06:56:32;23.80;;;22.40;;
11255;SDS011;5685;52.384;13.420;2022-12-19T06:59:35;23.87;;;22.47;;
11255;SDS011;5685;52.384;13.420;2022-12-19T07:02:38;23.67;;;22.27;;
11255;SDS011;5685;52.384;13.420;2022-12-19T07:05:44;23.57;;;22.17;;
11255;SDS011;5685;52.384;13.420;2022-12-19T07:08:48;23.53;;;22.13;;
11255;SDS011;5685;52.384;13.420;2022-12-19T07:11:51;23.97;;;22.57;;
11255;SDS011;5685;52.384;13.420;2022-12-19T07:14:53;23.77;;;22.37;;
11255;SDS011;5685;52.384;13.420;2022-12-19T07:17:56;23.77;;;22.37;;
11255;SDS011;5685;52.384;13.420;2022-12-19T07:20:59;24.07;;;22.67;;
11255;SDS011;5685;52.384;13.420;2022-12-19T07:24:04;24.00;;;22.60;;
11255;SDS011;5685;52.384;13.420;2022-12-19T07:27:07;23.80;;;22.40;;
11255;SDS011;5685;52.384;13.420;2022-12-19T07:30:10;24.03;;;22.63;;
11255;SDS011;5685;52.384;13.420;2022-12-19T07:33:13;23.63;;;22.23;;
11255;SDS011;5685;52.384;13.420;2022-12-19T07:36:16;23.80;;;22.40;;
11255;SDS011;5685;52.384;13.420;2022-12-19T07:39:20;23.77;;;22.37;;
11255;SDS011;5685;52.384;13.420;2022-12-19T07:42:23;24.00;;;22.60;;
11255;SDS011;5685;52.384;13.420;2022-12-19T07:45:26;23.83;;;22.43;;
11255;SDS011;5685;52.384;13.420;2022-12-19T07:48:29;23.80;;;22.40;;
11255;SDS011;5685;52.384;13.420;2022-12-19T07:51:32;23.63;;;22.23;;
11255;SDS011;5685;52.384;13.420;2022-12-19T07:54:36;23.77;;;22.37;;
11255;SDS011;5685;52.384;13.420;2022-12-19T07:57:40;23.67;;;22.27;;
11255;SDS011;5685;52.384;13.420;2022-12-19T08:00:42;24.03;;;22.63;;
11255;SDS011;5685;52.384;13.420;2022-12-19T08:03:45;23.97;;;22.57;;
11255;SDS011;5685;52.384;13.420;2022-12-19T08:06:47;23.83;;;22.43;;
11255;SDS011;5685;52.384;13.420;2022-12-19T08:09:51;23.90;;;22.50;;
11255;SDS011;5685;52.384;13.420;2022-12-19T08:12:54;24.10;;;22.70;;
11255;SDS011;5685;52.384;13.420;2022-12-19T08:15:58;23.77;;;22.37;;
11255;SDS011;5685;52.384;13.420;2022-12-19T08:19:01;23.83;;;22.43;;
11255;SDS011;5685;52.384;13.420;2022-12-19T08:26:03;23.87;;;22.47;;
11255;SDS011;5685;52.384;13.420;2022-12-19T08:29:07;23.90;;;22.50;;
11255;SDS011;5685;52.384;13.420;2022-12-19T08:32:09;23.87;;;22.47;;
11255;SDS011;5685;52.384;13.420;2022-12-19T08:35:12;23.73;;;22.33;;
11255;SDS011;5685;52.384;13.420;2022-12-19T08:38:15;23.60;;;22.20;;
11255;SDS011;5685;52.384;13.420;2022-12-19T08:41:19;23.63;;;22.23;;
11255;SDS011;5685;52.384;13.420;2022-12-19T08:44:22;23.77;;;22.37;;
11255;SDS011;5685;52.384;13.420;2022-12-19T08:47:25;23.77;;;22.37;;
11255;SDS011;5685;52.384;13.420;2022-12-19T08:50:27;23.87;;;22.47;;
11255;SDS011;5685;52.384;13.420;2022-12-19T08:53:30;23.73;;;22.33;;
11255;SDS011;5685;52.384;13.420;2022-12-19T08:56:38;23.90;;;22.50;;
11255;SDS011;5685;52.384;13.420;2022-12-19T08:59:41;23.80;;;22.40;;
11255;SDS011;5685;52.384;13.420;2022-12-19T09:02:44;23.60;;;22.20;;
11255;SDS011;5685;52.384;13.420;2022-12-19T09:05:52;23.77;;;22.37;;
11255;SDS011;5685;52.384;13.420;2022-12-19T09:08:56;23.77;;;22.37;;
11255;SDS011;5685;52.384;13.420;2022-12-19T09:12:00;23.67;;;22.27;;
11255;SDS011;5685;52.384;13.420;2022-12-19T09:15:03;23.90;;;22.50;;
11255;SDS011;5685;52.384;13.420;2022-12-19T09:18:10;23.87;;;22.47;;
11255;SDS011;5685;52.384;13.420;2022-12-19T09:21:13;23.73;;;22.33;;
11255;SDS011;5685;52.384;13.420;2022-12-19T09:24:15;23.80;;;22.40;;
11255;SDS011;5685;52.384;13.420;2022-12-19T09:27:20;23.90;;;22.50;;
11255;SDS011;5685;52.384;13.420;2022-12-19T09:30:22;23.93;;;22.53;;
11255;SDS011;5685;52.384;13.420;2022-12-19T09:33:25;23.73;;;22.33;;
11255;SDS011;5685;52.384;13.420;2022-12-19T09:36:29;23.83;;;22.43;;
11255;SDS011;5685;52.384;13.420;2022-12-19T09:39:32;23.90;;;22.50;;
11255;SDS011;5685;52.384;13.420;2022-12-19T09:42:43;23.73;;;22.33;;
11255;SDS011;5685;52.384;13.420;2022-12-19T09:45:56;23.77;;;22.37;;
11255;SDS011;5685;52.384;13.420;2022-12-19T09:49:09;23.90;;;22.50;;
11255;SDS011;5685;52.384;13.420;2022-12-19T09:52:14;23.70;;;22.30;;
11255;SDS011;5685;52.384;13.420;2022-12-19T09:55:19;24.00;;;22.60;;
11255;SDS011;5685;52.384;13.420;2022-12-19T09:58:31;23.83;;;22.43;;
11255;SDS011;5685;52.384;13.420;2022-12-19T10:01:47;23.73;;;22.33;;
11255;SDS011;5685;52.384;13.420;2022-12-19T10:04:56;23.70;;;22.30;;
11255;SDS011;5685;52.384;13.420;2022-12-19T10:08:08;23.73;;;22.33;;
11255;SDS011;5685;52.384;13.420;2022-12-19T10:11:20;23.73;;;22.33;;
11255;SDS011;5685;52.384;13.420;2022-12-19T10:14:39;23.63;;;22.23;;
11255;SDS011;5685;52.384;13.420;2022-12-19T10:17:57;23.80;;;22.40;;
11255;SDS011;5685;52.384;13.420;2022-12-19T10:21:06;24.60;;;23.20;;
11255;SDS011;5685;52.384;13.420;2022-12-19T10:24:27;23.90;;;22.50;;
11255;SDS011;5685;52.384;13.420;2022-12-19T10:27:43;23.83;;;22.43;;
11255;SDS011;5685;52.384;13.420;2022-12-19T10:30:51;24.03;;;22.63;;
11255;SDS011;5685;52.384;13.420;2022-12-19T10:33:59;24.07;;;22.67;;
11255;SDS011;5685;52.384;13.420;2022-12-19T10:37:12;23.83;;;22.43;;
11255;SDS011;5685;52.384;13.420;2022-12-19T10:40:19;24.03;;;22.63;;
11255;SDS011;5685;52.384;13.420;2022-12-19T10:43:29;23.77;;;22.37;;
11255;SDS011;5685;52.384;13.420;2022-12-19T10:46:38;23.83;;;22.43;;
11255;SDS011;5685;52.384;13.420;2022-12-19T10:49:42;23.93;;;22.53;;
11255;SDS011;5685;52.384;13.420;2022-12-19T10:52:46;23.97;;;22.57;;
11255;SDS011;5685;52.384;13.420;2022-12-19T10:55:52;24.07;;;22.67;;
11255;SDS011;5685;52.384;13.420;2022-12-19T10:58:56;23.73;;;22.33;;
11255;SDS011;5685;52.384;13.420;2022-12-19T11:02:01;23.83;;;22.43;;
11255;SDS011;5685;52.384;13.420;2022-12-19T11:05:21;24.00;;;22.60;;
11255;SDS011;5685;52.384;13.420;2022-12-19T11:08:25;23.73;;;22.33;;
11255;SDS011;5685;52.384;13.420;2022-12-19T11:11:33;24.30;;;22.90;;
11255;SDS011;5685;52.384;13.420;2022-12-19T11:14:37;23.73;;;22.33;;
11255;SDS011;5685;52.384;13.420;2022-12-19T11:17:42;23.93;;;22.53;;
11255;SDS011;5685;52.384;13.420;2022-12-19T11:20:52;23.93;;;22.53;;
11255;SDS011;5685;52.384;13.420;2022-12-19T11:23:59;23.93;;;22.53;;
11255;SDS011;5685;52.384;13.420;2022-12-19T11:27:07;23.83;;;22.43;;
11255;SDS011;5685;52.384;13.420;2022-12-19T11:30:36;23.77;;;22.37;;
11255;SDS011;5685;52.384;13.420;2022-12-19T11:33:40;23.83;;;22.43;;
11255;SDS011;5685;52.384;13.420;2022-12-19T11:36:46;23.83;;;22.43;;
11255;SDS011;5685;52.384;13.420;2022-12-19T11:39:53;23.80;;;22.40;;
11255;SDS011;5685;52.384;13.420;2022-12-19T11:42:59;23.77;;;22.37;;
11255;SDS011;5685;52.384;13.420;2022-12-19T11:46:07;24.20;;;22.80;;
11255;SDS011;5685;52.384;13.420;2022-12-19T11:49:17;24.03;;;22.63;;
11255;SDS011;5685;52.384;13.420;2022-12-19T11:52:27;24.00;;;22.60;;
11255;SDS011;5685;52.384;13.420;2022-12-19T11:55:39;23.97;;;22.57;;
11255;SDS011;5685;52.384;13.420;2022-12-19T11:58:45;24.20;;;22.80;;
11255;SDS011;5685;52.384;13.420;2022-12-19T12:01:54;23.67;;;22.27;;
11255;SDS011;5685;52.384;13.420;2022-12-19T12:05:07;23.90;;;22.50;;
11255;SDS011;5685;52.384;13.420;2022-12-19T12:08:38;24.00;;;22.60;;
11255;SDS011;5685;52.384;13.420;2022-12-19T12:11:51;23.97;;;22.57;;
11255;SDS011;5685;52.384;13.420;2022-12-19T12:15:11;23.97;;;22.57;;
11255;SDS011;5685;52.384;13.420;2022-12-19T12:18:42;24.13;;;22.73;;
11255;SDS011;5685;52.384;13.420;2022-12-19T12:21:55;23.63;;;22.23;;
11255;SDS011;5685;52.384;13.420;2022-12-19T12:25:11;23.90;;;22.50;;
11255;SDS011;5685;52.384;13.420;2022-12-19T12:32:00;23.87;;;22.47;;
11255;SDS011;5685;52.384;13.420;2022-12-19T12:35:14;24.03;;;22.63;;
11255;SDS011;5685;52.384;13.420;2022-12-19T12:38:29;23.83;;;22.43;;
11255;SDS011;5685;52.384;13.420;2022-12-19T12:41:44;24.07;;;22.67;;
11255;SDS011;5685;52.384;13.420;2022-12-19T12:45:09;23.73;;;22.33;;
11255;SDS011;5685;52.384;13.420;2022-12-19T12:48:21;23.93;;;22.53;;
11255;SDS011;5685;52.384;13.420;2022-12-19T12:51:26;24.17;;;22.77;;
11255;SDS011;5685;52.384;13.420;2022-12-19T12:54:34;24.17;;;22.77;;
11255;SDS011;5685;52.384;13.420;2022-12-19T12:57:38;24.17;;;22.77;;
11255;SDS011;5685;52.384;13.420;2022-12-19T13:00:41;23.83;;;22.43;;
11255;SDS011;5685;52.384;13.420;2022-12-19T13:04:17;23.97;;;22.57;;
11255;SDS011;5685;52.384;13.420;2022-12-19T13:07:27;24.17;;;22.77;;
11255;SDS011;5685;52.384;13.420;2022-12-19T13:10:35;24.10;;;22.70;;
11255;SDS011;5685;52.384;13.420;2022-12-19T13:13:52;24.10;;;22.70;;
11255;SDS011;5685;52.384;13.420;2022-12-19T13:16:57;23.67;;;22.27;;
11255;SDS011;5685;52.384;13.420;2022-12-19T13:20:24;23.97;;;22.57;;
11255;SDS011;5685;52.384;13.420;2022-12-19T13:23:41;23.77;;;22.37;;
11255;SDS011;5685;52.384;13.420;2022-12-19T13:26:49;23.97;;;22.57;;
11255;SDS011;5685;52.384;13.420;2022-12-19T13:29:53;23.93;;;22.53;;
11255;SDS011;5685;52.384;13.420;2022-12-19T13:33:06;24.10;;;22.70;;
11255;SDS011;5685;52.384;13.420;2022-12-19T13:40:05;23.77;;;22.37;;
11255;SDS011;5685;52.384;13.420;2022-12-19T13:43:16;23.80;;;22.40;;
11255;SDS011;5685;52.384;13.420;2022-12-19T13:46:37;23.83;;;22.43;;
11255;SDS011;5685;52.384;13.420;2022-12-19T13:49:41;23.93;;;22.53;;
11255;SDS011;5685;52.384;13.420;2022-12-19T13:52:47;23.83;;;22.43;;
11255;SDS011;5685;52.384;13.420;2022-12-19T13:55:52;24.07;;;22.67;;
11255;SDS011;5685;52.384;13.420;2022-12-19T13:58:57;24.00;;;22.60;;
11255;SDS011;5685;52.384;13.420;2022-12-19T14:02:04;24.10;;;22.70;;
11255;SDS011;5685;52.384;13.420;2022-12-19T14:05:13;24.10;;;22.70;;
11255;SDS011;5685;52.384;13.420;2022-12-19T14:08:22;24.07;;;22.67;;
11255;SDS011;5685;52.384;13.420;2022-12-19T14:11:26;24.13;;;22.73;;
11255;SDS011;5685;52.384;13.420;2022-12-19T14:14:31;23.83;;;22.43;;
11255;SDS011;5685;52.384;13.420;2022-12-19T14:17:51;24.07;;;22.67;;
11255;SDS011;5685;52.384;13.420;2022-12-19T14:21:05;24.13;;;22.73;;
11255;SDS011;5685;52.384;13.420;2022-12-19T14:24:14;24.20;;;22.80;;
11255;SDS011;5685;52.384;13.420;2022-12-19T14:27:18;24.10;;;22.70;;
11255;SDS011;5685;52.384;13.420;2022-12-19T14:30:27;24.03;;;22.63;;
11255;SDS011;5685;52.384;13.420;2022-12-19T14:33:32;24.03;;;22.63;;
11255;SDS011;5685;52.384;13.420;2022-12-19T14:36:37;23.97;;;22.57;;
11255;SDS011;5685;52.384;13.420;2022-12-19T14:39:43;24.17;;;22.77;;
11255;SDS011;5685;52.384;13.420;2022-12-19T14:42:46;24.03;;;22.63;;
11255;SDS011;5685;52.384;13.420;2022-12-19T14:46:21;23.97;;;22.57;;
11255;SDS011;5685;52.384;13.420;2022-12-19T14:49:29;24.00;;;22.60;;
11255;SDS011;5685;52.384;13.420;2022-12-19T14:52:39;24.07;;;22.67;;
11255;SDS011;5685;52.384;13.420;2022-12-19T14:55:45;23.93;;;22.53;;
11255;SDS011;5685;52.384;13.420;2022-12-19T14:58:51;24.07;;;22.67;;
11255;SDS011;5685;52.384;13.420;2022-12-19T15:01:58;24.17;;;22.77;;
11255;SDS011;5685;52.384;13.420;2022-12-19T15:05:04;23.87;;;22.47;;
11255;SDS011;5685;52.384;13.420;2022-12-19T15:08:08;24.03;;;22.63;;
11255;SDS011;5685;52.384;13.420;2022-12-19T15:11:22;24.03;;;22.63;;
11255;SDS011;5685;52.384;13.420;2022-12-19T15:14:45;24.00;;;22.60;;
11255;SDS011;5685;52.384;13.420;2022-12-19T15:17:51;23.90;;;22.50;;
11255;SDS011;5685;52.384;13.420;2022-12-19T15:20:56;24.27;;;22.87;;
11255;SDS011;5685;52.384;13.420;2022-12-19T15:24:00;24.07;;;22.67;;
11255;SDS011;5685;52.384;13.420;2022-12-19T15:27:03;24.10;;;22.70;;
11255;SDS011;5685;52.384;13.420;2022-12-19T15:30:08;24.20;;;22.80;;
11255;SDS011;5685;52.384;13.420;2022-12-19T15:33:19;24.07;;;22.67;;
11255;SDS011;5685;52.384;13.420;2022-12-19T15:36:22;24.13;;;22.73;;
11255;SDS011;5685;52.384;13.420;2022-12-19T15:39:24;24.07;;;22.67;;
11255;SDS011;5685;52.384;13.420;2022-12-19T15:42:29;24.17;;;22.77;;
11255;SDS011;5685;52.384;13.420;2022-12-19T15:45:31;24.17;;;22.77;;
11255;SDS011;5685;52.384;13.420;2022-12-19T15:48:36;24.23;;;22.83;;
11255;SDS011;5685;52.384;13.420;2022-12-19T15:51:40;24.10;;;22.70;;
11255;SDS011;5685;52.384;13.420;2022-12-19T15:54:43;24.10;;;22.70;;
11255;SDS011;5685;52.384;13.420;2022-12-19T15:57:47;24.13;;;22.73;;
11255;SDS011;5685;52.384;13.420;2022-12-19T16:00:53;24.47;;;23.07;;
11255;SDS011;5685;52.384;13.420;2022-12-19T16:03:59;24.23;;;22.83;;
11255;SDS011;5685;52.384;13.420;2022-12-19T16:07:04;24.17;;;22.77;;
11255;SDS011;5685;52.384;13.420;2022-12-19T16:10:13;24.37;;;22.97;;
11255;SDS011;5685;52.384;13.420;2022-12-19T16:13:17;24.13;;;22.73;;
11255;SDS011;5685;52.384;13.420;2022-12-19T16:16:21;24.13;;;22.73;;
11255;SDS011;5685;52.384;13.420;2022-12-19T16:19:26;24.17;;;22.77;;
11255;SDS011;5685;52.384;13.420;2022-12-19T16:22:30;24.07;;;22.67;;
11255;SDS011;5685;52.384;13.420;2022-12-19T16:25:33;24.20;;;22.80;;
11255;SDS011;5685;52.384;13.420;2022-12-19T16:28:38;24.10;;;22.70;;
11255;SDS011;5685;52.384;13.420;2022-12-19T16:31:40;24.17;;;22.77;;
11255;SDS011;5685;52.384;13.420;2022-12-19T16:34:45;24.33;;;22.93;;
11255;SDS011;5685;52.384;13.420;2022-12-19T16:37:47;24.17;;;22.77;;
11255;SDS011;5685;52.384;13.420;2022-12-19T16:40:50;24.30;;;22.90;;
11255;SDS011;5685;52.384;13.420;2022-12-19T16:43:53;24.23;;;22.83;;
11255;SDS011;5685;52.384;13.420;2022-12-19T16:46:56;24.10;;;22.70;;
11255;SDS011;5685;52.384;13.420;2022-12-19T16:50:00;24.17;;;22.77;;
11255;SDS011;5685;52.384;13.420;2022-12-19T16:53:07;24.23;;;22.83;;
11255;SDS011;5685;52.384;13.420;2022-12-19T16:56:12;24.20;;;22.80;;
11255;SDS011;5685;52.384;13.420;2022-12-19T16:59:24;24.43;;;23.03;;
11255;SDS011;5685;52.384;13.420;2022-12-19T17:02:34;24.37;;;22.97;;
11255;SDS011;5685;52.384;13.420;2022-12-19T17:05:43;24.30;;;22.90;;
11255;SDS011;5685;52.384;13.420;2022-12-19T17:08:45;24.33;;;22.93;;
11255;SDS011;5685;52.384;13.420;2022-12-19T17:11:49;24.27;;;22.87;;
11255;SDS011;5685;52.384;13.420;2022-12-19T17:14:53;24.27;;;22.87;;
11255;SDS011;5685;52.384;13.420;2022-12-19T17:17:57;24.37;;;22.97;;
11255;SDS011;5685;52.384;13.420;2022-12-19T17:21:03;24.43;;;23.03;;
11255;SDS011;5685;52.384;13.420;2022-12-19T17:24:08;24.37;;;22.97;;
11255;SDS011;5685;52.384;13.420;2022-12-19T17:27:13;24.23;;;22.83;;
11255;SDS011;5685;52.384;13.420;2022-12-19T17:30:18;24.27;;;22.87;;
11255;SDS011;5685;52.384;13.420;2022-12-19T17:33:22;24.47;;;23.07;;
11255;SDS011;5685;52.384;13.420;2022-12-19T17:36:30;24.17;;;22.77;;
11255;SDS011;5685;52.384;13.420;2022-12-19T17:39:33;24.37;;;22.97;;
11255;SDS011;5685;52.384;13.420;2022-12-19T17:42:36;24.33;;;22.93;;
11255;SDS011;5685;52.384;13.420;2022-12-19T17:45:38;24.27;;;22.87;;
11255;SDS011;5685;52.384;13.420;2022-12-19T17:48:41;24.27;;;22.87;;
11255;SDS011;5685;52.384;13.420;2022-12-19T17:51:48;24.40;;;23.00;;
11255;SDS011;5685;52.384;13.420;2022-12-19T17:54:51;24.27;;;22.87;;
11255;SDS011;5685;52.384;13.420;2022-12-19T17:57:54;24.03;;;22.63;;
11255;SDS011;5685;52.384;13.420;2022-12-19T18:00:57;24.47;;;23.07;;
11255;SDS011;5685;52.384;13.420;2022-12-19T18:03:59;24.17;;;22.77;;
11255;SDS011;5685;52.384;13.420;2022-12-19T18:07:07;24.53;;;23.13;;
11255;SDS011;5685;52.384;13.420;2022-12-19T18:10:15;24.33;;;22.93;;
11255;SDS011;5685;52.384;13.420;2022-12-19T18:13:18;24.37;;;22.97;;
11255;SDS011;5685;52.384;13.420;2022-12-19T18:16:21;24.40;;;23.00;;
11255;SDS011;5685;52.384;13.420;2022-12-19T18:19:26;24.63;;;23.23;;
11255;SDS011;5685;52.384;13.420;2022-12-19T18:22:33;26.50;;;25.00;;